Kandiyohi, Minnesota
Current Conditions -  °F | °C
As of 6:54 AM on Friday 31 Oct 2014 (Local Time) from KBDH Reporting Station
Clear Clear  
Wind Chill: -10°   Ceiling: Unl
Heat Index: -5°   Visibility: 10mi
Dew Point: -8°   Wind: 8mph
Humidity: 80%   Direction: 330°NNW
Pressure: 30.55"   Gusts: NA
Location:  45.13°N, 94.93°W
Report Text: KBDH 311154Z AUTO 33007KT 10SM CLR M05/M08 A3055 RMK AO2
Loading
Personal Weather Stations






























Interactive Weather Map
Tropical Storm Tracking
New forecast layout! Learn more

10-Day Weather Forecast

Advertisements
Track Severe Weather on mobile